CheckWX is a tool to help pilots better visualize weather data.  It is not intended as a substitute for an official pre-flight weather briefing.

13:03:58 UTC

LFPV METAR
Villacoublay-Vélizy (BA 107) Air Base Airport
Villacoublay/Vélizy, France
Current

34 mins ago

LFPV 201230Z AUTO 33008KT 280V030 9999 BKN027 17/11 Q1011 NOSIG
Observed
May-20 @ 12:30 UTC
Wind
  • 330° at 8 KTS
Visibility
10,000+ meters
Flight Rules
MVFR
Cloud Levels
  • Broken at 2,700' AGL
Temperature
17°C / 63°F
Dewpoint
11°C / 52°F
Humidity
68%
Altimeter
29.85" Hg
Pressure
1010.92 hPa
Previous

1 hour ago

LFPV 201200Z AUTO 32010KT 280V020 9999 BKN025 17/11 Q1011 NOSIG
Observed
May-20 @ 12:00 UTC
Wind
  • 320° at 10 KTS
Visibility
10,000+ meters
Flight Rules
MVFR
Cloud Levels
  • Broken at 2,500' AGL
Temperature
17°C / 63°F
Dewpoint
11°C / 52°F
Humidity
68%
Altimeter
29.85" Hg
Pressure
1010.92 hPa
Previous

2 hours ago

LFPV 201130Z AUTO 32010KT 290V360 9999 BKN022 BKN027 BKN220 16/11 Q1011 NOSIG
Observed
May-20 @ 11:30 UTC
Wind
  • 320° at 10 KTS
Visibility
10,000+ meters
Flight Rules
MVFR
Cloud Levels
  • Broken at 2,200' AGL
  • Broken at 2,700' AGL
  • Broken at 22,000' AGL
Temperature
16°C / 61°F
Dewpoint
11°C / 52°F
Humidity
72%
Altimeter
29.85" Hg
Pressure
1010.92 hPa